Belleville, Indiana
Current Conditions -  °F | °C
As of 7:54 PM on Thursday 27 Nov 2014 (Local Time) from KIND Reporting Station
Light Snow Light Snow  
Wind Chill: 16°   Ceiling: 4600
Heat Index: 26°   Visibility: 7mi
Dew Point: 20°   Wind: 12mph
Humidity: 78%   Direction: 310°NW
Pressure: 30.39"   Gusts: NA
Location:  39.6566°N, 86.5049°W
Report Text: KIND 280054Z 31010KT 7SM -SN SCT036 OVC046 M03/M07 A3039 RMK AO2 SLP302 P0000 T10331067
Loading
Personal Weather Stations






























Interactive Weather Map New forecast layout! Learn more

10-Day Weather Forecast

Advertisements
Track Severe Weather on mobile